Time;durP1;ratioP1;P1;durP2;ratioP2;P2;SDS_P1;SDS_P2;PMS_P1;PMS_P2;Temp;Humidity;BMP_temperature;BMP_pressure;BME280_temperature;BME280_humidity;BME280_pressure;Samples;Min_cycle;Max_cycle;Signal;HPM_P1;HPM_P2
2023/06/01 00:00:20;;;;;;;;;;;;;;;;;;;;;
2023/06/01 00:03:48;;;;;;;30.20;15.20;;;;;;;13.28;56.58;100602.34;111094;1257;22045;-82
2023/06/01 00:07:01;;;;;;;28.50;16.80;;;;;;;13.29;56.51;100596.67;111184;1256;21976;-82
2023/06/01 00:10:25;;;;;;;21.10;14.60;;;;;;;13.28;56.36;100599.70;111164;1258;23027;-81
2023/06/01 00:14:05;;;;;;;;;;;;;;;;;;;;;
2023/06/01 00:17:46;;;;;;;;;;;;;;;;;;;;;
2023/06/01 00:21:00;;;;;;;;;;;;;;;;;;;;;
2023/06/01 00:28:15;;;;;;;21.60;15.90;;;;;;;13.05;56.69;100593.55;111340;1256;23759;-82
2023/06/01 00:31:27;;;;;;;;;;;;;;;;;;;;;
2023/06/01 00:35:05;;;;;;;25.00;15.80;;;;;;;13.05;56.91;100593.02;111303;1256;22831;-81
2023/06/01 00:38:33;;;;;;;25.00;16.10;;;;;;;13.00;56.93;100589.04;111025;1260;21957;-80
2023/06/01 00:41:37;;;;;;;;;;;;;;;;;;;;;
2023/06/01 00:44:24;;;;;;;25.20;15.40;;;;;;;12.99;56.91;100589.46;110642;1258;21991;-80
2023/06/01 00:47:16;;;;;;;;;;;;;;;;;;;;;
2023/06/01 00:50:19;;;;;;;;;;;;;;;;;;;;;
2023/06/01 00:53:09;;;;;;;20.30;15.50;;;;;;;12.89;57.17;100576.78;111139;1258;22030;-81
2023/06/01 00:56:13;;;;;;;21.50;16.00;;;;;;;12.85;57.19;100577.12;111216;1253;22061;-81
2023/06/01 00:59:33;;;;;;;20.40;16.30;;;;;;;12.78;57.30;100570.12;111519;1251;23637;-81
2023/06/01 01:03:11;;;;;;;26.80;15.60;;;;;;;12.69;57.52;100565.95;111314;1255;21976;-81
2023/06/01 01:06:52;;;;;;;25.30;15.10;;;;;;;12.61;57.51;100567.52;110798;1263;23068;-81
2023/06/01 01:10:31;;;;;;;;;;;;;;;12.52;57.66;100562.49;109625;1272;23073;-82
2023/06/01 01:13:46;;;;;;;18.40;13.40;;;;;;;12.40;57.95;100562.48;109369;1274;21985;-82
2023/06/01 01:17:32;;;;;;;25.40;14.10;;;;;;;12.37;58.08;100557.90;108995;1279;23804;-81
2023/06/01 01:20:52;;;;;;;;;;;;;;;;;;;;;
2023/06/01 01:24:16;;;;;;;19.10;13.90;;;;;;;12.42;58.31;100552.77;109008;1276;23024;-81
2023/06/01 01:27:29;;;;;;;;;;;;;;;;;;;;;
2023/06/01 01:30:35;;;;;;;19.30;13.10;;;;;;;12.40;58.29;100551.67;109470;1273;22035;-81
2023/06/01 01:33:39;;;;;;;18.50;13.60;;;;;;;12.35;58.32;100554.33;109579;1273;21647;-81
2023/06/01 01:36:39;;;;;;;;;;;;;;;12.30;58.33;100556.05;109750;1267;21963;-81
2023/06/01 01:39:45;;;;;;;20.00;13.20;;;;;;;12.17;58.51;100553.98;110226;1263;23774;-80
2023/06/01 01:42:19;;;;;;;18.80;13.70;;;;;;;12.14;58.64;100554.64;110591;1264;21980;-80
2023/06/01 01:45:00;;;;;;;23.40;14.20;;;;;;;12.16;58.69;100549.85;110607;1264;21960;-80
2023/06/01 01:47:58;;;;;;;22.00;14.10;;;;;;;12.15;58.71;100546.39;111140;1257;21975;-80
2023/06/01 01:51:13;;;;;;;;;;;;;;;;;;;;;
2023/06/01 01:54:55;;;;;;;19.40;13.20;;;;;;;12.08;59.06;100542.31;112446;1244;21968;-80
2023/06/01 01:58:01;;;;;;;;;;;;;;;12.08;59.26;100540.23;112581;1243;23678;-80
2023/06/01 02:01:05;;;;;;;;;;;;;;;;;;;;;
2023/06/01 02:04:36;;;;;;;18.80;14.00;;;;;;;12.03;59.36;100539.23;112197;1247;21972;-81
2023/06/01 02:08:03;;;;;;;;;;;;;;;;;;;;;
2023/06/01 02:11:30;;;;;;;22.60;13.20;;;;;;;12.01;59.46;100529.87;110990;1259;21988;-80
2023/06/01 02:14:59;;;;;;;20.50;12.90;;;;;;;11.97;59.24;100527.77;111119;1259;23834;-80
2023/06/01 02:18:35;;;;;;;;;;;;;;;;;;;;;
2023/06/01 02:21:58;;;;;;;19.10;13.00;;;;;;;11.87;59.68;100528.66;111810;1251;21985;-80
2023/06/01 02:25:07;;;;;;;;;;;;;;;;;;;;;
2023/06/01 02:28:15;;;;;;;22.00;12.90;;;;;;;11.96;59.94;100525.54;111195;1257;22279;-80
2023/06/01 02:32:01;;;;;;;17.30;12.50;;;;;;;11.94;60.02;100523.18;111919;1250;21959;-81
2023/06/01 02:35:13;;;;;;;17.30;13.00;;;;;;;11.96;60.17;100520.33;111767;1250;21963;-81
2023/06/01 02:38:50;;;;;;;;;;;;;;;;;;;;;
2023/06/01 02:42:34;;;;;;;22.80;12.70;;;;;;;11.99;59.89;100518.98;111831;1251;22294;-80
2023/06/01 02:46:18;;;;;;;19.50;12.40;;;;;;;11.88;60.00;100518.52;111250;1250;22000;-81
2023/06/01 02:49:36;;;;;;;;;;;;;;;;;;;;;
2023/06/01 02:56:18;;;;;;;;;;;;;;;;;;;;;
2023/06/01 02:59:31;;;;;;;22.80;14.10;;;;;;;11.85;60.82;100522.98;110983;1250;22165;-81
2023/06/01 03:02:38;;;;;;;19.50;12.50;;;;;;;11.90;60.75;100520.58;111364;1255;21972;-82
2023/06/01 03:06:07;;;;;;;23.20;12.70;;;;;;;12.01;60.87;100521.86;111346;1254;22514;-82
2023/06/01 03:09:17;;;;;;;23.40;14.50;;;;;;;12.07;60.98;100522.83;111393;1256;22735;-82
2023/06/01 03:12:31;;;;;;;21.60;12.10;;;;;;;12.15;60.70;100521.80;111607;1251;21985;-81
2023/06/01 03:15:29;;;;;;;20.40;12.80;;;;;;;12.23;60.62;100521.31;111759;1251;21955;-81
2023/06/01 03:18:23;;;;;;;24.20;12.60;;;;;;;12.31;60.66;100521.48;111629;1251;22046;-81
2023/06/01 03:21:27;;;;;;;23.70;12.90;;;;;;;12.41;60.75;100514.95;111233;1254;21966;-81
2023/06/01 03:24:45;;;;;;;38.00;33.90;;;;;;;12.53;60.69;100511.48;111365;1254;22971;-81
2023/06/01 03:27:20;;;;;;;30.20;25.10;;;;;;;12.66;60.58;100509.19;111924;1248;22420;-81
2023/06/01 03:30:50;;;;;;;19.60;12.80;;;;;;;12.78;60.43;100505.66;111753;1252;21989;-81
2023/06/01 03:33:56;;;;;;;47.20;42.10;;;;;;;12.83;59.92;100506.66;112022;1246;21964;-80
2023/06/01 03:37:00;;;;;;;22.20;14.20;;;;;;;12.82;59.64;100508.08;111641;1252;23054;-79
2023/06/01 03:39:51;;;;;;;21.90;12.90;;;;;;;12.83;59.51;100503.85;111706;1251;22328;-80
2023/06/01 03:42:45;;;;;;;;;;;;;;;;;;;;;
2023/06/01 03:46:15;;;;;;;18.90;12.90;;;;;;;12.88;59.18;100507.83;111710;1251;23628;-82
2023/06/01 03:49:18;;;;;;;32.60;22.90;;;;;;;12.94;59.47;100505.67;112298;1246;23622;-80
2023/06/01 03:51:52;;;;;;;18.50;13.30;;;;;;;13.07;59.51;100500.73;112332;1242;22003;-82
2023/06/01 03:54:23;;;;;;;19.30;12.90;;;;;;;13.20;59.48;100495.73;112520;1237;22205;-82
2023/06/01 03:56:53;;;;;;;18.50;13.60;;;;;;;13.35;59.33;100497.48;112899;1232;22693;-80
2023/06/01 03:59:29;;;;;;;19.60;12.20;;;;;;;13.49;59.13;100499.14;113795;1231;21936;-82
2023/06/01 04:02:42;;;;;;;14.00;11.60;;;;;;;13.59;58.77;100498.29;113362;1237;21981;-84
2023/06/01 04:05:49;;;;;;;;;;;;;;;13.62;58.22;100497.27;113560;1237;22389;-81
2023/06/01 04:08:50;;;;;;;22.40;12.80;;;;;;;13.57;58.42;100497.34;113445;1237;21964;-81
2023/06/01 04:16:09;;;;;;;18.20;11.90;;;;;;;13.74;58.26;100495.29;112430;1245;22647;-83
2023/06/01 04:19:27;;;;;;;;;;;;;;;;;;;;;
2023/06/01 04:23:26;;;;;;;15.10;11.60;;;;;;;14.07;57.99;100497.19;111603;1252;22063;-83
2023/06/01 04:29:53;;;;;;;18.50;10.90;;;;;;;14.45;57.33;100494.91;111521;1253;22009;-81
2023/06/01 04:33:17;;;;;;;19.00;12.50;;;;;;;14.60;57.17;100489.95;111589;1255;22033;-82
2023/06/01 04:36:06;;;;;;;27.40;12.40;;;;;;;14.81;57.15;100488.71;111704;1248;21985;-80
2023/06/01 04:39:14;;;;;;;;;;;;;;;;;;;;;
2023/06/01 04:42:04;;;;;;;23.40;12.20;;;;;;;15.43;56.82;100484.77;112078;1248;21989;-80
2023/06/01 04:45:15;;;;;;;19.50;11.60;;;;;;;15.82;56.45;100478.23;112290;1244;22184;-82
2023/06/01 04:48:47;;;;;;;24.70;13.00;;;;;;;16.31;56.12;100476.41;112865;1241;24354;-83
2023/06/01 04:52:38;;;;;;;;;;;;;;;;;;;;;
2023/06/01 04:56:05;;;;;;;22.50;12.60;;;;;;;17.29;53.12;100472.86;113280;1239;22022;-82
2023/06/01 05:00:05;;;;;;;19.30;12.10;;;;;;;17.79;52.67;100474.57;113057;1239;21955;-80
2023/06/01 05:03:34;;;;;;;25.40;11.50;;;;;;;18.38;51.85;100472.05;113181;1239;23108;-81
2023/06/01 05:06:58;;;;;;;22.90;12.00;;;;;;;19.02;50.95;100466.88;113273;1239;23020;-83
2023/06/01 05:10:03;;;;;;;32.00;11.50;;;;;;;19.63;50.10;100463.77;113125;1239;22944;-81
2023/06/01 05:13:02;;;;;;;59.50;15.60;;;;;;;20.24;49.04;100463.45;112761;1239;23979;-80
2023/06/01 05:15:54;;;;;;;42.40;15.50;;;;;;;20.72;47.61;100456.95;112486;1244;21959;-80
2023/06/01 05:18:27;;;;;;;16.50;11.30;;;;;;;21.06;46.91;100458.29;112304;1244;21959;-80
2023/06/01 05:21:26;;;;;;;28.00;11.70;;;;;;;21.51;46.27;100456.80;112439;1244;21952;-81
2023/06/01 05:24:53;;;;;;;20.30;11.30;;;;;;;21.90;45.24;100453.46;112148;1244;22851;-82
2023/06/01 05:28:23;;;;;;;15.50;7.70;;;;;;;22.28;44.10;100455.19;112102;1249;21913;-82
2023/06/01 05:31:44;;;;;;;22.70;8.50;;;;;;;22.58;43.03;100453.31;111997;1234;23007;-82
2023/06/01 05:35:11;;;;;;;14.40;5.90;;;;;;;22.90;41.22;100449.85;112702;1242;21944;-80
2023/06/01 05:38:49;;;;;;;10.70;6.30;;;;;;;23.37;40.72;100445.12;112628;1242;21976;-82
2023/06/01 05:42:02;;;;;;;;;;;;;;;;;;;;;
2023/06/01 05:45:37;;;;;;;;;;;;;;;;;;;;;
2023/06/01 05:48:26;;;;;;;13.40;5.90;;;;;;;24.38;37.52;100443.73;112817;1240;21954;-84
2023/06/01 05:51:41;;;;;;;;;;;;;;;;;;;;;
2023/06/01 05:54:29;;;;;;;14.50;6.20;;;;;;;24.92;35.57;100439.46;111539;1245;24417;-80
2023/06/01 05:57:41;;;;;;;12.70;6.20;;;;;;;24.88;35.21;100439.48;111663;1252;22341;-80
2023/06/01 06:00:45;;;;;;;10.90;5.70;;;;;;;25.07;35.44;100440.70;111475;1253;21992;-83
2023/06/01 06:04:08;;;;;;;11.70;6.40;;;;;;;25.23;34.83;100433.81;111729;1252;22269;-84
2023/06/01 06:07:09;;;;;;;9.40;5.70;;;;;;;25.41;34.52;100432.20;111581;1252;21986;-81
2023/06/01 06:10:16;;;;;;;13.50;5.30;;;;;;;25.59;34.56;100433.77;111887;1247;22017;-82
2023/06/01 06:13:07;;;;;;;9.20;5.90;;;;;;;25.93;34.08;100430.95;112267;1242;21960;-80
2023/06/01 06:17:05;;;;;;;12.00;6.20;;;;;;;26.12;33.33;100429.89;112476;1241;21968;-79
2023/06/01 06:20:15;;;;;;;8.10;4.90;;;;;;;26.29;33.34;100431.41;113734;1231;22952;-81
2023/06/01 06:23:37;;;;;;;11.10;5.20;;;;;;;26.61;33.01;100428.68;113442;1236;23683;-81
2023/06/01 06:26:40;;;;;;;;;;;;;;;;;;;;;
2023/06/01 06:29:50;;;;;;;;;;;;;;;27.02;31.27;100424.64;113087;1241;21952;-80
2023/06/01 06:36:43;;;;;;;10.40;4.40;;;;;;;27.67;30.37;100424.16;112720;1243;22489;-79
2023/06/01 06:39:36;;;;;;;7.70;4.20;;;;;;;28.02;30.03;100420.17;112311;1243;22014;-79
2023/06/01 06:42:52;;;;;;;6.90;3.70;;;;;;;28.27;29.30;100417.05;112398;1244;22054;-78
2023/06/01 06:46:18;;;;;;;;;;;;;;;28.50;28.78;100419.48;112640;1244;23012;-78
2023/06/01 06:49:36;;;;;;;6.00;3.20;;;;;;;28.63;28.33;100418.94;112315;1244;23724;-78
2023/06/01 06:52:49;;;;;;;4.40;3.00;;;;;;;28.81;27.93;100421.95;112505;1244;21981;-78
2023/06/01 06:56:02;;;;;;;5.70;2.70;;;;;;;28.93;27.04;100417.19;112685;1241;23648;-80
2023/06/01 06:59:21;;;;;;;8.90;3.10;;;;;;;29.11;26.54;100416.30;112881;1240;22952;-79
2023/06/01 07:02:20;;;;;;;5.30;3.20;;;;;;;29.34;26.01;100417.84;113768;1231;22002;-79
2023/06/01 07:05:03;;;;;;;6.20;3.60;;;;;;;29.43;25.40;100416.59;113238;1232;23018;-80
2023/06/01 07:07:48;;;;;;;5.50;2.70;;;;;;;29.55;25.60;100415.19;113393;1235;21966;-81
2023/06/01 07:10:36;;;;;;;;;;;;;;;29.69;24.96;100411.04;113496;1235;22606;-80
2023/06/01 07:13:38;;;;;;;6.90;3.60;;;;;;;29.64;24.94;100408.02;113415;1235;21989;-80
2023/06/01 07:16:48;;;;;;;;;;;;;;;;;;;;;
2023/06/01 07:19:33;;;;;;;6.40;3.20;;;;;;;29.97;24.83;100405.76;113569;1235;23600;-80
2023/06/01 07:22:40;;;;;;;9.10;3.30;;;;;;;30.05;24.66;100402.98;113081;1237;21979;-80
2023/06/01 07:25:12;;;;;;;6.70;3.00;;;;;;;30.18;24.58;100398.14;113088;1237;21948;-80
2023/06/01 07:27:50;;;;;;;5.30;2.60;;;;;;;30.31;24.14;100399.94;113265;1237;21949;-79
2023/06/01 07:30:23;;;;;;;7.70;2.60;;;;;;;30.43;23.67;100402.25;113437;1236;21947;-81
2023/06/01 07:32:57;;;;;;;4.80;1.70;;;;;;;30.49;22.75;100397.73;113418;1235;23067;-79
2023/06/01 07:35:35;;;;;;;8.70;2.80;;;;;;;30.47;22.64;100392.98;113311;1235;21974;-80
2023/06/01 07:38:19;;;;;;;4.70;2.40;;;;;;;30.54;22.81;100390.30;113322;1236;21970;-80
2023/06/01 07:40:55;;;;;;;7.50;2.70;;;;;;;30.83;22.78;100388.64;113536;1235;21949;-81
2023/06/01 07:43:24;;;;;;;5.40;2.60;;;;;;;31.13;22.41;100384.33;113464;1235;22296;-80
2023/06/01 07:46:01;;;;;;;6.80;2.80;;;;;;;31.23;21.79;100382.97;113438;1236;22022;-81
2023/06/01 07:49:03;;;;;;;;;;;;;;;;;;;;;
2023/06/01 07:52:13;;;;;;;6.70;3.10;;;;;;;31.50;21.63;100377.52;113540;1235;21960;-79
2023/06/01 07:55:01;;;;;;;13.50;3.50;;;;;;;31.58;22.11;100372.66;113170;1236;22893;-82
2023/06/01 07:58:01;;;;;;;;;;;;;;;;;;;;;
2023/06/01 08:01:05;;;;;;;6.50;2.70;;;;;;;31.67;21.25;100373.84;113612;1231;21948;-80
2023/06/01 08:08:43;;;;;;;3.10;2.00;;;;;;;31.59;21.23;100368.64;113966;1232;22002;-78
2023/06/01 08:12:04;;;;;;;7.40;2.50;;;;;;;31.77;21.30;100364.49;113591;1224;22644;-79
2023/06/01 08:15:33;;;;;;;6.20;2.70;;;;;;;31.99;21.25;100362.16;113196;1237;21946;-78
2023/06/01 08:19:03;;;;;;;4.10;2.50;;;;;;;32.10;21.24;100358.75;112065;1249;21962;-80
2023/06/01 08:22:27;;;;;;;8.90;2.70;;;;;;;32.24;20.86;100358.71;111387;1253;22207;-79
2023/06/01 08:25:23;;;;;;;5.60;1.90;;;;;;;32.28;20.29;100358.81;110760;1259;23043;-79
2023/06/01 08:28:23;;;;;;;5.20;2.50;;;;;;;32.22;20.06;100358.98;110903;1259;21964;-81
2023/06/01 08:34:52;;;;;;;6.10;2.30;;;;;;;32.14;19.29;100349.60;110703;1261;24524;-84
2023/06/01 08:37:57;;;;;;;5.40;1.90;;;;;;;31.99;19.65;100348.13;110768;1262;22003;-79
2023/06/01 08:40:28;;;;;;;13.60;2.50;;;;;;;31.90;19.66;100346.57;111091;1257;21975;-77
2023/06/01 08:43:43;;;;;;;12.70;2.60;;;;;;;31.83;19.32;100352.33;111233;1254;21985;-80
2023/06/01 08:46:57;;;;;;;10.40;2.10;;;;;;;31.31;19.29;100346.79;111122;1258;23056;-81
2023/06/01 08:50:08;;;;;;;8.60;2.00;;;;;;;31.22;19.80;100344.35;111166;1253;21985;-80
2023/06/01 08:53:13;;;;;;;6.20;1.70;;;;;;;31.43;19.74;100332.48;111416;1256;22006;-79
2023/06/01 08:56:42;;;;;;;8.30;2.60;;;;;;;31.69;19.78;100332.70;111663;1247;21980;-79
2023/06/01 08:59:58;;;;;;;12.40;2.00;;;;;;;31.83;18.92;100328.41;112086;1247;23019;-81
2023/06/01 09:03:16;;;;;;;11.50;2.20;;;;;;;31.78;19.11;100326.02;111998;1247;23588;-80
2023/06/01 09:06:29;;;;;;;6.10;2.60;;;;;;;31.75;18.95;100324.73;112131;1247;22783;-80
2023/06/01 09:09:54;;;;;;;3.50;1.80;;;;;;;31.61;19.03;100316.33;112164;1247;23251;-80
2023/06/01 09:13:30;;;;;;;;;;;;;;;;;;;;;
2023/06/01 09:17:07;;;;;;;4.70;2.00;;;;;;;31.90;19.43;100311.15;111293;1255;23449;-79
2023/06/01 09:20:53;;;;;;;4.80;2.20;;;;;;;32.04;19.12;100308.30;108567;1263;2818535;-81
2023/06/01 09:23:43;;;;;;;;;;;;;;;;;;;;;
2023/06/01 09:27:04;;;;;;;7.00;1.70;;;;;;;32.13;18.74;100305.69;110867;1258;21999;-81
2023/06/01 09:31:19;;;;;;;;;;;;;;;;;;;;;
2023/06/01 09:34:37;;;;;;;8.00;2.40;;;;;;;32.08;19.21;100300.15;111801;1250;22821;-79
2023/06/01 09:38:03;;;;;;;;;;;;;;;;;;;;;
2023/06/01 09:41:14;;;;;;;6.60;2.00;;;;;;;32.13;19.18;100290.79;111663;1250;22981;-80
2023/06/01 09:45:29;;;;;;;3.80;2.00;;;;;;;32.14;19.24;100282.89;112374;1240;23682;-78
2023/06/01 09:53:00;;;;;;;5.40;2.00;;;;;;;31.98;19.98;100282.37;112664;1242;21970;-82
2023/06/01 09:56:49;;;;;;;9.40;2.50;;;;;;;31.98;19.98;100275.64;112045;1246;21999;-80
2023/06/01 10:01:12;;;;;;;;;;;;;;;;;;;;;
2023/06/01 10:04:59;;;;;;;;;;;;;;;;;;;;;
2023/06/01 10:08:22;;;;;;;20.10;2.60;;;;;;;31.60;19.98;100270.71;111262;1254;22983;-78
2023/06/01 10:11:10;;;;;;;5.50;1.50;;;;;;;31.49;19.96;100271.98;111435;1254;21983;-77
2023/06/01 10:14:15;;;;;;;6.30;2.30;;;;;;;31.21;20.24;100267.24;111370;1253;24366;-77
2023/06/01 10:17:38;;;;;;;6.70;1.80;;;;;;;30.95;20.55;100267.09;111261;1250;21965;-79
2023/06/01 10:21:06;;;;;;;10.60;2.90;;;;;;;30.82;20.87;100266.08;111073;1255;23577;-77
2023/06/01 10:24:17;;;;;;;7.90;1.90;;;;;;;30.75;20.65;100261.98;111323;1255;21960;-78
2023/06/01 10:31:58;;;;;;;7.30;2.20;;;;;;;30.21;21.05;100260.17;111396;1252;23646;-79
2023/06/01 10:35:49;;;;;;;10.50;3.80;;;;;;;29.79;21.58;100252.95;111292;1253;23724;-79
2023/06/01 10:39:27;;;;;;;6.90;3.10;;;;;;;29.68;22.04;100248.25;110782;1257;21984;-78
2023/06/01 10:42:26;;;;;;;5.00;3.60;;;;;;;29.60;22.06;100251.83;110379;1263;21977;-78
2023/06/01 10:46:41;;;;;;;9.00;3.20;;;;;;;29.32;22.01;100246.45;110134;1267;23033;-80
2023/06/01 10:53:58;;;;;;;6.10;2.40;;;;;;;29.07;22.22;100239.98;109838;1268;23633;-78
2023/06/01 10:56:59;;;;;;;13.30;2.60;;;;;;;28.84;22.60;100247.30;109687;1263;21987;-78
2023/06/01 10:59:39;;;;;;;;;;;;;;;;;;;;;
2023/06/01 11:02:59;;;;;;;;;;;;;;;;;;;;;
2023/06/01 11:06:35;;;;;;;8.70;3.30;;;;;;;28.53;22.98;100237.30;110949;1260;22007;-78
2023/06/01 11:09:54;;;;;;;5.40;3.50;;;;;;;28.39;22.81;100231.56;110942;1260;21994;-79
2023/06/01 11:13:52;;;;;;;4.50;2.90;;;;;;;28.17;22.90;100233.04;111057;1255;22250;-78
2023/06/01 11:17:10;;;;;;;;;;;;;;;;;;;;;
2023/06/01 11:20:44;;;;;;;6.40;2.70;;;;;;;27.79;23.18;100226.20;111053;1257;21987;-77
2023/06/01 11:24:12;;;;;;;6.50;2.50;;;;;;;27.60;23.39;100224.04;111036;1256;23761;-78
2023/06/01 11:27:04;;;;;;;12.30;10.50;;;;;;;27.47;23.16;100216.43;111130;1257;21997;-77
2023/06/01 11:29:52;;;;;;;13.60;2.50;;;;;;;27.39;23.30;100218.66;110971;1254;22007;-78
2023/06/01 11:32:52;;;;;;;7.80;2.40;;;;;;;27.41;23.43;100216.48;111613;1249;21994;-79
2023/06/01 11:36:23;;;;;;;;;;;;;;;;;;;;;
2023/06/01 11:39:17;;;;;;;;;;;;;;;;;;;;;
2023/06/01 11:42:33;;;;;;;;;;;;;;;;;;;;;
2023/06/01 11:46:32;;;;;;;;;;;;;;;;;;;;;
2023/06/01 11:49:22;;;;;;;6.00;2.60;;;;;;;27.05;23.74;100190.58;112391;1242;21967;-78
2023/06/01 11:52:34;;;;;;;6.20;2.20;;;;;;;26.98;23.90;100196.02;112480;1243;24300;-77
2023/06/01 11:56:09;;;;;;;;;;;;;;;;;;;;;
2023/06/01 11:59:58;;;;;;;;;;;;;;;;;;;;;
2023/06/01 12:03:16;;;;;;;8.00;2.80;;;;;;;26.94;24.27;100180.46;112616;1238;21956;-77
2023/06/01 12:06:09;;;;;;;4.60;2.70;;;;;;;26.89;24.45;100175.94;112807;1238;23642;-81
2023/06/01 12:09:38;;;;;;;9.60;3.00;;;;;;;26.92;24.43;100175.30;112984;1238;23597;-79
2023/06/01 12:12:46;;;;;;;11.00;2.40;;;;;;;26.99;24.15;100174.76;112069;1243;23021;-78
2023/06/01 12:16:16;;;;;;;9.20;2.80;;;;;;;27.06;23.79;100177.83;111215;1254;21978;-80
2023/06/01 12:19:51;;;;;;;3.90;2.50;;;;;;;27.01;23.66;100174.45;111126;1254;24343;-79
2023/06/01 12:23:03;;;;;;;;;;;;;;;;;;;;;
2023/06/01 12:26:46;;;;;;;10.00;3.10;;;;;;;26.95;24.15;100164.07;111074;1254;22984;-77
2023/06/01 12:30:37;;;;;;;9.20;3.60;;;;;;;26.91;23.36;100168.03;111167;1250;21981;-79
2023/06/01 12:34:20;;;;;;;;;;;;;;;26.87;23.25;100166.13;111438;1251;21968;-79
2023/06/01 12:37:26;;;;;;;11.90;3.20;;;;;;;26.80;23.36;100165.52;111599;1251;22154;-80
2023/06/01 12:40:54;;;;;;;7.40;2.70;;;;;;;26.80;23.68;100163.67;111493;1251;21972;-80
2023/06/01 12:48:53;;;;;;;4.30;2.60;;;;;;;26.84;24.40;100157.73;112082;1251;21986;-81
2023/06/01 12:51:52;;;;;;;6.60;2.80;;;;;;;26.86;24.12;100154.68;111987;1245;23127;-80
2023/06/01 12:54:50;;;;;;;;;;;;;;;;;;;;;
2023/06/01 12:57:57;;;;;;;7.50;3.90;;;;;;;26.85;23.76;100149.77;112556;1245;21979;-77
2023/06/01 13:01:31;;;;;;;9.70;3.70;;;;;;;26.83;23.86;100147.85;112252;1245;23034;-77
2023/06/01 13:05:07;;;;;;;;;;;;;;;;;;;;;
2023/06/01 13:08:57;;;;;;;10.20;4.00;;;;;;;26.83;23.71;100132.98;111568;1250;21963;-80
2023/06/01 13:12:09;;;;;;;;;;;;;;;;;;;;;
2023/06/01 13:15:41;;;;;;;12.40;4.10;;;;;;;26.87;23.40;100131.38;110817;1260;22733;-78
2023/06/01 13:18:55;;;;;;;8.20;3.20;;;;;;;26.88;23.49;100133.79;110612;1259;23056;-78
2023/06/01 13:22:06;;;;;;;5.20;3.00;;;;;;;26.86;23.49;100131.41;111205;1252;21980;-77
2023/06/01 13:25:35;;;;;;;6.80;4.50;;;;;;;26.83;23.61;100133.27;111382;1252;21975;-78
2023/06/01 13:28:16;;;;;;;11.30;3.90;;;;;;;26.79;23.87;100129.95;111872;1252;24296;-78
2023/06/01 13:34:35;;;;;;;;;;;;;;;;;;;;;
2023/06/01 13:37:17;;;;;;;6.40;3.70;;;;;;;26.76;23.85;100122.59;111476;1253;21957;-79
2023/06/01 13:40:55;;;;;;;4.70;3.70;;;;;;;26.72;23.79;100124.63;112160;1246;22029;-78
2023/06/01 13:43:57;;;;;;;8.70;4.50;;;;;;;26.73;23.96;100122.95;111500;1251;22009;-79
2023/06/01 13:50:23;;;;;;;13.90;4.30;;;;;;;26.68;23.73;100126.88;111058;1259;23028;-79
2023/06/01 13:53:29;;;;;;;;;;;;;;;;;;;;;
2023/06/01 13:56:07;;;;;;;8.30;4.00;;;;;;;26.69;24.06;100118.89;110828;1257;22738;-80
2023/06/01 13:59:02;;;;;;;4.60;3.40;;;;;;;26.75;24.25;100113.08;111255;1256;21997;-78
2023/06/01 14:01:36;;;;;;;5.10;3.60;;;;;;;26.81;24.03;100106.52;111154;1253;21986;-77
2023/06/01 14:08:08;;;;;;;;;;;;;;;;;;;;;
2023/06/01 14:11:56;;;;;;;15.80;3.80;;;;;;;26.69;24.00;100095.48;111014;1258;23701;-81
2023/06/01 14:15:38;;;;;;;8.70;4.00;;;;;;;26.70;24.17;100092.92;110873;1258;22923;-81
2023/06/01 14:19:17;;;;;;;6.90;3.20;;;;;;;26.63;23.61;100089.57;110343;1264;21990;-81
2023/06/01 14:22:07;;;;;;;7.90;3.70;;;;;;;26.58;23.28;100088.79;109634;1269;22085;-83
2023/06/01 14:26:03;;;;;;;;;;;;;;;;;;;;;
2023/06/01 14:29:20;;;;;;;;;;;;;;;;;;;;;
2023/06/01 14:32:35;;;;;;;;;;;;;;;;;;;;;
2023/06/01 14:36:04;;;;;;;19.00;4.70;;;;;;;26.51;23.20;100083.84;110726;1260;22011;-82
2023/06/01 14:39:08;;;;;;;9.60;4.50;;;;;;;26.52;23.38;100084.17;110895;1260;21971;-79
2023/06/01 14:42:37;;;;;;;7.00;3.80;;;;;;;26.53;23.58;100075.65;110818;1258;23734;-81
2023/06/01 14:45:47;;;;;;;6.40;4.00;;;;;;;26.50;23.79;100063.42;111064;1255;21976;-80
2023/06/01 14:49:58;;;;;;;;;;;;;;;;;;;;;
2023/06/01 14:53:01;;;;;;;;;;;;;;;;;;;;;
2023/06/01 14:56:11;;;;;;;;;;;;;;;;;;;;;
2023/06/01 15:00:04;;;;;;;8.80;3.50;;;;;;;26.40;23.59;100074.70;110972;1250;23691;-78
2023/06/01 15:04:09;;;;;;;4.90;3.40;;;;;;;26.32;23.83;100069.48;111725;1247;21984;-79
2023/06/01 15:07:05;;;;;;;;;;;;;;;26.29;24.33;100069.62;111951;1239;22984;-77
2023/06/01 15:10:27;;;;;;;7.40;3.40;;;;;;;26.22;24.80;100072.75;112928;1238;21972;-79
2023/06/01 15:20:51;;;;;;;;;;;;;;;;;;;;;
2023/06/01 15:24:23;;;;;;;;;;;;;;;;;;;;;
2023/06/01 15:28:13;;;;;;;;;;;;;;;;;;;;;
2023/06/01 15:32:50;;;;;;;8.00;3.70;;;;;;;26.24;25.24;100053.10;110384;1265;22043;-77
2023/06/01 15:37:10;;;;;;;;;;;;;;;;;;;;;
2023/06/01 15:41:00;;;;;;;;;;;;;;;;;;;;;
2023/06/01 15:44:28;;;;;;;5.10;3.70;;;;;;;26.16;24.31;100046.70;109164;1272;21991;-79
2023/06/01 15:48:18;;;;;;;;;;;;;;;;;;;;;
2023/06/01 15:51:44;;;;;;;6.70;3.50;;;;;;;26.12;23.68;100041.56;109734;1269;21991;-78
2023/06/01 15:58:40;;;;;;;4.70;3.90;;;;;;;26.09;24.84;100032.23;109216;1272;21985;-78
2023/06/01 16:02:00;;;;;;;4.60;3.60;;;;;;;26.07;24.94;100028.36;108862;1278;23666;-77
2023/06/01 16:05:22;;;;;;;8.90;3.80;;;;;;;26.00;25.08;100029.31;108466;1276;23724;-78
2023/06/01 16:12:55;;;;;;;12.90;3.60;;;;;;;25.93;26.40;100023.78;107376;1298;548100;-77
2023/06/01 16:16:44;;;;;;;;;;;;;;;;;;;;;
2023/06/01 16:20:12;;;;;;;5.50;3.60;;;;;;;25.75;26.77;100020.96;109436;1273;21994;-77
2023/06/01 16:23:14;;;;;;;7.30;3.80;;;;;;;25.72;26.82;100021.05;109124;1275;22006;-79
2023/06/01 16:26:42;;;;;;;4.10;3.00;;;;;;;25.69;26.90;100017.08;106221;1257;4955883;-77
2023/06/01 16:29:27;;;;;;;6.30;3.60;;;;;;;25.67;26.92;100014.48;109796;1268;22073;-79
2023/06/01 16:32:01;;;;;;;10.80;3.30;;;;;;;25.67;26.99;100014.40;110154;1269;21969;-83
2023/06/01 16:39:02;;;;;;;7.40;3.20;;;;;;;25.56;27.62;100012.81;109877;1270;22135;-79
2023/06/01 16:42:47;;;;;;;9.30;3.70;;;;;;;25.47;28.04;100013.74;109205;1271;23651;-79
2023/06/01 16:45:31;;;;;;;9.00;3.90;;;;;;;25.41;28.29;100000.48;109524;1274;22010;-82
2023/06/01 16:48:20;;;;;;;9.40;3.40;;;;;;;25.35;28.51;100000.73;109520;1270;23050;-81
2023/06/01 16:51:01;;;;;;;6.30;4.00;;;;;;;25.33;29.04;100005.90;109433;1262;24305;-79
2023/06/01 16:53:44;;;;;;;13.10;5.10;;;;;;;25.29;29.41;99999.95;109633;1273;22753;-79
2023/06/01 16:56:18;;;;;;;18.30;15.70;;;;;;;25.29;30.08;99996.21;109795;1273;22697;-82
2023/06/01 16:58:52;;;;;;;9.10;6.10;;;;;;;25.29;30.66;99994.58;109267;1274;23639;-81
2023/06/01 17:01:35;;;;;;;6.00;3.70;;;;;;;25.31;30.98;99996.74;109768;1272;21989;-81
2023/06/01 17:04:07;;;;;;;10.80;5.50;;;;;;;25.31;31.32;99995.52;109884;1272;23041;-84
2023/06/01 17:06:40;;;;;;;12.10;5.60;;;;;;;25.26;31.97;99994.92;109395;1277;22157;-84
2023/06/01 17:09:50;;;;;;;18.30;6.50;;;;;;;25.18;32.73;99993.43;108965;1278;21982;-77
2023/06/01 17:16:13;;;;;;;20.00;5.90;;;;;;;25.10;33.33;99986.98;108331;1289;22005;-80
2023/06/01 17:19:17;;;;;;;14.40;6.80;;;;;;;25.00;33.50;99988.39;108561;1287;22095;-82
2023/06/01 17:22:23;;;;;;;9.90;5.90;;;;;;;24.92;33.72;99991.70;109019;1279;22002;-81
2023/06/01 17:25:10;;;;;;;14.10;6.10;;;;;;;24.80;34.08;99997.04;108929;1280;23769;-81
2023/06/01 17:27:52;;;;;;;11.70;5.80;;;;;;;24.66;34.33;99998.80;109051;1281;21991;-81
2023/06/01 17:30:29;;;;;;;9.10;5.80;;;;;;;24.57;34.49;99999.36;109174;1280;23144;-82
2023/06/01 17:33:27;;;;;;;18.70;6.50;;;;;;;24.47;34.59;100003.59;108848;1281;21972;-79
2023/06/01 17:36:13;;;;;;;12.30;6.10;;;;;;;24.29;34.91;100003.73;109118;1281;23063;-80
2023/06/01 17:39:24;;;;;;;13.20;6.60;;;;;;;24.16;35.15;100001.95;109381;1281;21994;-81
2023/06/01 17:43:01;;;;;;;11.40;6.30;;;;;;;24.00;35.21;100004.58;109375;1282;21991;-82
2023/06/01 17:46:25;;;;;;;17.40;7.40;;;;;;;23.82;35.32;100010.98;109299;1274;21932;-80
2023/06/01 17:49:17;;;;;;;11.00;7.80;;;;;;;23.69;35.57;100012.95;108956;1283;22978;-82